Time,TemperatureF,DewpointF,PressureIn,WindDirection,WindDirectionDegrees,WindSpeedMPH,WindSpeedGustMPH,Humidity,HourlyPrecipIn,Conditions,Clouds,dailyrainin,SolarRadiationWatts/m^2,SoftwareType,DateUTC
2013-02-13 00:01:00,49.0,45.6,30.31,West,259,0.5,3.5,88,0.00,OVC,,0.00,0.0,WeatherDisplay:10.37,2013-02-13 08:01:00,
2013-02-13 00:06:00,49.0,45.6,30.31,West,259,0.7,3.5,88,0.00,OVC,,0.00,0.0,WeatherDisplay:10.37,2013-02-13 08:06:00,
2013-02-13 00:11:00,48.9,45.5,30.31,West,259,2.9,4.0,88,0.00,OVC,,0.00,0.0,WeatherDisplay:10.37,2013-02-13 08:11:00,
2013-02-13 00:16:00,48.8,45.7,30.31,WSW,240,3.0,5.0,89,0.00,OVC,,0.00,0.0,WeatherDisplay:10.37,2013-02-13 08:16:00,
2013-02-13 00:21:00,48.7,45.6,30.31,WSW,239,3.4,4.6,89,0.00,OVC,,0.00,0.0,WeatherDisplay:10.37,2013-02-13 08:21:00,
2013-02-13 00:26:00,48.7,45.6,30.31,WSW,242,3.3,4.6,89,0.00,OVC,,0.00,0.0,WeatherDisplay:10.37,2013-02-13 08:26:00,
2013-02-13 00:31:00,48.6,45.5,30.31,WSW,242,0.3,1.1,89,0.00,OVC,,0.00,0.0,WeatherDisplay:10.37,2013-02-13 08:31:00,
2013-02-13 00:36:00,48.6,45.5,30.31,WSW,242,0.9,3.5,89,0.00,OVC,,0.00,0.0,WeatherDisplay:10.37,2013-02-13 08:36:00,
2013-02-13 00:41:00,48.5,45.4,30.31,WSW,242,2.1,3.5,89,0.00,OVC,,0.00,0.0,WeatherDisplay:10.37,2013-02-13 08:41:00,
2013-02-13 00:46:00,48.4,45.3,30.31,WSW,242,0.2,1.1,89,0.00,OVC,,0.00,0.0,WeatherDisplay:10.37,2013-02-13 08:46:00,
2013-02-13 00:51:00,48.3,45.2,30.31,WSW,243,2.0,5.0,89,0.00,OVC,,0.00,0.0,WeatherDisplay:10.37,2013-02-13 08:51:00,
2013-02-13 00:56:00,48.3,45.2,30.31,WSW,243,2.4,3.5,89,0.00,OVC,,0.00,0.0,WeatherDisplay:10.37,2013-02-13 08:56:00,
2013-02-13 01:01:00,48.3,45.5,30.31,WSW,246,0.3,3.5,90,0.00,OVC,,0.00,0.0,WeatherDisplay:10.37,2013-02-13 09:01:00,
2013-02-13 01:07:00,48.3,45.5,30.31,WSW,245,1.1,3.5,90,0.00,OVC,,0.00,0.0,WeatherDisplay:10.37,2013-02-13 09:07:00,
2013-02-13 01:12:00,48.3,45.5,30.31,WSW,245,0.0,0.0,90,0.00,OVC,,0.00,0.0,WeatherDisplay:10.37,2013-02-13 09:12:00,
2013-02-13 01:17:00,48.1,45.0,30.31,WSW,245,0.0,0.0,89,0.00,OVC,,0.00,0.0,WeatherDisplay:10.37,2013-02-13 09:17:00,
2013-02-13 01:22:00,48.0,45.2,30.31,WSW,244,0.0,0.0,90,0.00,OVC,,0.00,0.0,WeatherDisplay:10.37,2013-02-13 09:22:00,
2013-02-13 01:27:00,47.9,44.8,30.31,WSW,245,0.0,0.0,89,0.00,OVC,,0.00,0.0,WeatherDisplay:10.37,2013-02-13 09:27:00,
2013-02-13 01:32:00,47.7,44.6,30.31,WSW,244,0.0,0.0,89,0.00,OVC,,0.00,0.0,WeatherDisplay:10.37,2013-02-13 09:32:00,
2013-02-13 01:37:00,47.6,44.8,30.31,WSW,245,0.0,0.0,90,0.00,OVC,,0.00,0.0,WeatherDisplay:10.37,2013-02-13 09:37:00,
2013-02-13 01:42:00,47.5,44.7,30.31,WSW,245,0.0,0.0,90,0.00,OVC,,0.00,0.0,WeatherDisplay:10.37,2013-02-13 09:42:00,
2013-02-13 01:47:00,47.4,44.6,30.31,WSW,245,0.0,0.0,90,0.00,OVC,,0.00,0.0,WeatherDisplay:10.37,2013-02-13 09:47:00,
2013-02-13 01:52:00,47.4,44.6,30.31,WSW,244,0.0,0.0,90,0.00,OVC,,0.00,0.0,WeatherDisplay:10.37,2013-02-13 09:52:00,
2013-02-13 01:57:00,47.2,44.4,30.31,WSW,245,0.0,0.0,90,0.00,OVC,,0.00,0.0,WeatherDisplay:10.37,2013-02-13 09:57:00,
2013-02-13 02:02:00,47.1,44.3,30.31,WSW,244,0.0,0.0,90,0.00,OVC,,0.00,0.0,WeatherDisplay:10.37,2013-02-13 10:02:00,
2013-02-13 02:07:00,47.0,44.2,30.31,WSW,245,0.0,0.0,90,0.00,OVC,,0.00,0.0,WeatherDisplay:10.37,2013-02-13 10:07:00,
2013-02-13 02:12:00,46.8,44.0,30.31,WSW,244,0.0,0.0,90,0.00,OVC,,0.00,0.0,WeatherDisplay:10.37,2013-02-13 10:12:00,
2013-02-13 02:17:00,46.8,44.3,30.31,WSW,244,0.0,0.0,91,0.00,OVC,,0.00,0.0,WeatherDisplay:10.37,2013-02-13 10:17:00,
2013-02-13 02:22:00,46.8,44.3,30.31,WSW,244,0.0,0.0,91,0.00,OVC,,0.00,0.0,WeatherDisplay:10.37,2013-02-13 10:22:00,
2013-02-13 02:27:00,46.7,44.2,30.31,WSW,245,0.0,0.0,91,0.00,OVC,,0.00,0.0,WeatherDisplay:10.37,2013-02-13 10:27:00,
2013-02-13 02:32:00,46.6,44.1,30.31,WSW,244,0.0,0.0,91,0.00,OVC,,0.00,0.0,WeatherDisplay:10.37,2013-02-13 10:32:00,
2013-02-13 02:37:00,46.6,44.1,30.31,WSW,245,0.0,0.0,91,0.00,OVC,,0.00,0.0,WeatherDisplay:10.37,2013-02-13 10:37:00,
2013-02-13 02:42:00,46.5,44.0,30.31,WSW,244,0.0,0.0,91,0.00,OVC,,0.00,0.0,WeatherDisplay:10.37,2013-02-13 10:42:00,
2013-02-13 02:47:00,46.6,44.4,30.31,WSW,245,0.0,0.0,92,0.00,OVC,,0.00,0.0,WeatherDisplay:10.37,2013-02-13 10:47:00,
2013-02-13 02:52:00,46.6,44.4,30.31,WSW,244,0.0,0.0,92,0.00,OVC,,0.00,0.0,WeatherDisplay:10.37,2013-02-13 10:52:00,
2013-02-13 02:57:00,46.6,44.1,30.30,WSW,244,1.4,3.5,91,0.00,OVC,,0.00,0.0,WeatherDisplay:10.37,2013-02-13 10:57:00,
2013-02-13 03:02:00,46.5,44.0,30.30,WSW,245,0.8,2.3,91,0.00,OVC,,0.00,0.0,WeatherDisplay:10.37,2013-02-13 11:02:00,
2013-02-13 03:07:00,46.5,44.3,30.30,WSW,245,1.6,3.5,92,0.00,OVC,,0.00,0.0,WeatherDisplay:10.37,2013-02-13 11:07:00,
2013-02-13 03:12:00,46.4,44.2,30.30,WSW,244,0.2,2.3,92,0.00,OVC,,0.00,0.0,WeatherDisplay:10.37,2013-02-13 11:12:00,
2013-02-13 03:17:00,46.4,44.2,30.30,WSW,245,1.6,3.5,92,0.00,OVC,,0.00,0.0,WeatherDisplay:10.37,2013-02-13 11:17:00,
2013-02-13 03:22:00,46.5,44.3,30.30,WSW,245,0.8,2.3,92,0.00,OVC,,0.00,0.0,WeatherDisplay:10.37,2013-02-13 11:22:00,
2013-02-13 03:27:00,46.4,44.2,30.30,WSW,245,0.0,0.0,92,0.00,OVC,,0.00,0.0,WeatherDisplay:10.37,2013-02-13 11:27:00,
2013-02-13 03:32:00,46.3,44.1,30.30,WSW,244,0.0,0.0,92,0.00,OVC,,0.00,0.0,WeatherDisplay:10.37,2013-02-13 11:32:00,
2013-02-13 03:37:00,46.2,44.0,30.30,WSW,245,0.0,0.0,92,0.00,OVC,,0.00,0.0,WeatherDisplay:10.37,2013-02-13 11:37:00,
2013-02-13 03:42:00,46.1,43.9,30.30,WSW,244,0.0,0.0,92,0.00,OVC,,0.00,0.0,WeatherDisplay:10.37,2013-02-13 11:42:00,
2013-02-13 03:47:00,46.1,43.9,30.30,WSW,245,0.6,2.3,92,0.00,OVC,,0.00,0.0,WeatherDisplay:10.37,2013-02-13 11:47:00,
2013-02-13 03:52:00,46.0,43.8,30.29,WSW,244,0.0,0.0,92,0.00,OVC,,0.00,0.0,WeatherDisplay:10.37,2013-02-13 11:52:00,
2013-02-13 03:57:00,46.0,43.8,30.29,WSW,245,0.6,1.1,92,0.00,OVC,,0.00,0.0,WeatherDisplay:10.37,2013-02-13 11:57:00,
2013-02-13 04:02:00,45.9,43.7,30.29,WSW,245,0.1,1.1,92,0.00,OVC,,0.00,0.0,WeatherDisplay:10.37,2013-02-13 12:02:00,
2013-02-13 04:07:00,45.9,43.7,30.29,WSW,244,0.0,0.0,92,0.00,OVC,,0.00,0.0,WeatherDisplay:10.37,2013-02-13 12:07:00,
2013-02-13 04:12:00,45.8,43.6,30.30,WSW,244,0.0,0.0,92,0.00,OVC,,0.00,0.0,WeatherDisplay:10.37,2013-02-13 12:12:00,
2013-02-13 04:17:00,45.8,43.6,30.30,WSW,245,0.0,0.0,92,0.00,OVC,,0.00,0.0,WeatherDisplay:10.37,2013-02-13 12:17:00,
2013-02-13 04:22:00,45.6,43.4,30.30,WSW,245,0.0,0.0,92,0.00,OVC,,0.00,0.0,WeatherDisplay:10.37,2013-02-13 12:22:00,
2013-02-13 04:27:00,45.5,43.6,30.30,WSW,244,0.0,0.0,93,0.00,OVC,,0.00,0.0,WeatherDisplay:10.37,2013-02-13 12:27:00,
2013-02-13 04:32:00,45.4,43.5,30.30,WSW,244,0.0,0.0,93,0.00,OVC,,0.00,0.0,WeatherDisplay:10.37,2013-02-13 12:32:00,
2013-02-13 04:37:00,45.3,43.1,30.30,WSW,245,0.0,0.0,92,0.00,OVC,,0.00,0.0,WeatherDisplay:10.37,2013-02-13 12:37:00,
2013-02-13 04:42:00,45.2,43.0,30.30,WSW,245,0.0,0.0,92,0.00,OVC,,0.00,0.0,WeatherDisplay:10.37,2013-02-13 12:42:00,
2013-02-13 04:47:00,45.1,42.9,30.30,WSW,245,0.0,0.0,92,0.00,OVC,,0.00,0.0,WeatherDisplay:10.37,2013-02-13 12:47:00,
2013-02-13 04:52:00,45.1,43.2,30.30,WSW,244,0.0,0.0,93,0.00,OVC,,0.00,0.0,WeatherDisplay:10.37,2013-02-13 12:52:00,
2013-02-13 04:57:00,45.0,43.1,30.30,WSW,245,0.0,0.0,93,0.00,OVC,,0.00,0.0,WeatherDisplay:10.37,2013-02-13 12:57:00,
2013-02-13 05:02:00,44.9,43.0,30.30,WSW,244,0.0,0.0,93,0.00,OVC,,0.00,0.0,WeatherDisplay:10.37,2013-02-13 13:02:00,
2013-02-13 05:07:00,44.7,42.8,30.30,WSW,244,0.0,0.0,93,0.00,OVC,,0.00,0.0,WeatherDisplay:10.37,2013-02-13 13:07:00,
2013-02-13 05:12:00,44.6,42.4,30.30,WSW,245,0.0,0.0,92,0.00,OVC,,0.00,0.0,WeatherDisplay:10.37,2013-02-13 13:12:00,
2013-02-13 05:17:00,44.5,42.6,30.30,WSW,244,0.0,0.0,93,0.00,OVC,,0.00,0.0,WeatherDisplay:10.37,2013-02-13 13:17:00,
2013-02-13 05:22:00,44.5,42.6,30.30,WSW,244,0.0,0.0,93,0.00,OVC,,0.00,0.0,WeatherDisplay:10.37,2013-02-13 13:22:00,
2013-02-13 05:27:00,44.6,42.7,30.30,WSW,244,0.0,0.0,93,0.00,OVC,,0.00,0.0,WeatherDisplay:10.37,2013-02-13 13:27:00,
2013-02-13 05:32:00,44.7,42.8,30.30,WSW,244,0.0,0.0,93,0.00,OVC,,0.00,0.0,WeatherDisplay:10.37,2013-02-13 13:32:00,
2013-02-13 05:37:00,44.6,42.7,30.30,WSW,245,0.0,0.0,93,0.00,OVC,,0.00,0.0,WeatherDisplay:10.37,2013-02-13 13:37:00,
2013-02-13 05:42:00,44.4,42.5,30.30,WSW,245,0.0,0.0,93,0.00,OVC,,0.00,0.0,WeatherDisplay:10.37,2013-02-13 13:42:00,
2013-02-13 05:47:00,44.3,42.4,30.30,WSW,245,0.0,0.0,93,0.00,OVC,,0.00,0.0,WeatherDisplay:10.37,2013-02-13 13:47:00,
2013-02-13 05:52:00,44.2,42.3,30.30,WSW,245,0.0,0.0,93,0.00,OVC,,0.00,0.0,WeatherDisplay:10.37,2013-02-13 13:52:00,
2013-02-13 05:57:00,44.1,42.2,30.30,WSW,245,0.0,0.0,93,0.00,OVC,,0.00,0.0,WeatherDisplay:10.37,2013-02-13 13:57:00,
2013-02-13 06:02:00,44.0,42.1,30.30,WSW,244,0.0,0.0,93,0.00,OVC,,0.00,0.0,WeatherDisplay:10.37,2013-02-13 14:02:00,
2013-02-13 06:07:00,44.0,42.1,30.30,WSW,245,0.1,0.0,93,0.00,OVC,,0.00,0.0,WeatherDisplay:10.37,2013-02-13 14:07:00,
2013-02-13 06:12:00,44.1,42.2,30.30,WSW,244,2.9,4.0,93,0.00,OVC,,0.00,0.0,WeatherDisplay:10.37,2013-02-13 14:12:00,
2013-02-13 06:17:00,44.2,42.3,30.30,WSW,244,1.1,3.5,93,0.00,OVC,,0.00,0.0,WeatherDisplay:10.37,2013-02-13 14:17:00,
2013-02-13 06:22:00,44.3,42.7,30.30,WSW,245,2.2,2.2,94,0.00,OVC,,0.00,0.0,WeatherDisplay:10.37,2013-02-13 14:22:00,
2013-02-13 06:27:00,44.4,42.8,30.30,WSW,245,0.6,3.5,94,0.00,OVC,,0.00,0.0,WeatherDisplay:10.37,2013-02-13 14:27:00,
2013-02-13 06:32:00,44.5,42.9,30.30,WSW,244,0.0,0.0,94,0.00,OVC,,0.00,0.0,WeatherDisplay:10.37,2013-02-13 14:32:00,
2013-02-13 06:37:00,44.5,42.9,30.30,WSW,245,0.0,0.0,94,0.00,OVC,,0.00,0.0,WeatherDisplay:10.37,2013-02-13 14:37:00,
2013-02-13 06:42:00,44.4,42.8,30.30,WSW,244,0.0,0.0,94,0.00,OVC,,0.00,0.0,WeatherDisplay:10.37,2013-02-13 14:42:00,
2013-02-13 06:47:00,44.4,42.8,30.30,WSW,244,0.0,0.0,94,0.00,OVC,,0.00,0.0,WeatherDisplay:10.37,2013-02-13 14:47:00,
2013-02-13 06:53:00,44.4,42.8,30.30,WSW,245,0.0,0.0,94,0.00,OVC,,0.00,0.0,WeatherDisplay:10.37,2013-02-13 14:53:00,
2013-02-13 06:58:00,44.5,42.9,30.31,WSW,245,0.0,0.0,94,0.00,OVC,,0.00,0.0,WeatherDisplay:10.37,2013-02-13 14:58:00,
2013-02-13 07:03:00,44.6,43.0,30.31,WSW,245,0.0,0.0,94,0.00,OVC,,0.00,0.0,WeatherDisplay:10.37,2013-02-13 15:03:00,
2013-02-13 07:08:00,44.8,43.2,30.31,WSW,245,0.0,0.0,94,0.01,RA,,0.01,5.0,WeatherDisplay:10.37,2013-02-13 15:08:00,
2013-02-13 07:13:00,45.0,43.7,30.31,WSW,245,0.0,0.0,95,0.01,RA,,0.01,9.0,WeatherDisplay:10.37,2013-02-13 15:13:00,
2013-02-13 07:18:00,45.2,43.9,30.31,WSW,244,0.1,1.1,95,0.01,,,0.01,11.0,WeatherDisplay:10.37,2013-02-13 15:18:00,
2013-02-13 07:23:00,45.4,44.1,30.31,WSW,245,0.0,0.0,95,0.01,,,0.01,14.0,WeatherDisplay:10.37,2013-02-13 15:23:00,
2013-02-13 07:28:00,45.6,44.3,30.31,WSW,244,0.0,0.0,95,0.01,,,0.01,14.0,WeatherDisplay:10.37,2013-02-13 15:28:00,
2013-02-13 07:33:00,45.9,44.5,30.31,WSW,245,0.0,0.0,95,0.01,,,0.01,19.0,WeatherDisplay:10.37,2013-02-13 15:33:00,
2013-02-13 07:38:00,46.2,44.8,30.31,WSW,244,0.3,2.3,95,0.01,,,0.01,26.0,WeatherDisplay:10.37,2013-02-13 15:38:00,
2013-02-13 07:43:00,46.4,45.0,30.32,WSW,245,0.0,0.0,95,0.01,,,0.01,26.0,WeatherDisplay:10.37,2013-02-13 15:43:00,
2013-02-13 07:48:00,46.6,45.2,30.31,WSW,244,0.0,0.0,95,0.01,,,0.01,28.0,WeatherDisplay:10.37,2013-02-13 15:48:00,
2013-02-13 07:53:00,46.7,45.3,30.32,WSW,244,0.0,0.0,95,0.01,CLR,,0.01,33.0,WeatherDisplay:10.37,2013-02-13 15:53:00,
2013-02-13 07:58:00,47.0,45.6,30.32,WSW,245,0.0,0.0,95,0.01,CLR,,0.01,30.0,WeatherDisplay:10.37,2013-02-13 15:58:00,
2013-02-13 08:03:00,47.3,45.9,30.32,WSW,244,0.7,2.3,95,0.01,CLR,,0.01,47.0,WeatherDisplay:10.37,2013-02-13 16:03:00,
2013-02-13 08:08:00,46.9,45.3,30.32,WSW,245,0.3,1.1,94,0.00,CLR,,0.01,46.0,WeatherDisplay:10.37,2013-02-13 16:08:00,
2013-02-13 08:13:00,46.8,45.4,30.32,WSW,245,0.0,0.0,95,0.00,CLR,,0.01,47.0,WeatherDisplay:10.37,2013-02-13 16:13:00,
2013-02-13 08:18:00,47.0,45.6,30.32,WSW,244,0.0,0.0,95,0.00,CLR,,0.01,46.0,WeatherDisplay:10.37,2013-02-13 16:18:00,
2013-02-13 08:23:00,46.9,45.3,30.32,WSW,245,0.0,0.0,94,0.00,FEW,,0.01,54.0,WeatherDisplay:10.37,2013-02-13 16:23:00,
2013-02-13 08:28:00,46.8,45.4,30.32,WSW,244,0.0,0.0,95,0.00,SCT,,0.01,51.0,WeatherDisplay:10.37,2013-02-13 16:28:00,
2013-02-13 08:33:00,47.0,45.6,30.32,WSW,244,0.0,0.0,95,0.00,SCT,,0.01,72.0,WeatherDisplay:10.37,2013-02-13 16:33:00,
2013-02-13 08:38:00,47.2,45.8,30.32,WSW,245,0.1,0.0,95,0.00,SCT,,0.01,77.0,WeatherDisplay:10.37,2013-02-13 16:38:00,
2013-02-13 08:43:00,47.3,45.9,30.32,WSW,244,0.1,2.3,95,0.00,SCT,,0.01,90.0,WeatherDisplay:10.37,2013-02-13 16:43:00,
2013-02-13 08:48:00,47.3,45.9,30.32,WSW,245,0.5,2.3,95,0.00,SCT,,0.01,81.0,WeatherDisplay:10.37,2013-02-13 16:48:00,
2013-02-13 08:53:00,47.4,46.0,30.32,WSW,245,0.0,2.3,95,0.00,SCT,,0.01,105.0,WeatherDisplay:10.37,2013-02-13 16:53:00,
2013-02-13 08:58:00,47.6,46.2,30.32,WSW,244,0.0,0.0,95,0.00,SCT,,0.01,98.0,WeatherDisplay:10.37,2013-02-13 16:58:00,
2013-02-13 09:03:00,47.7,46.3,30.32,WSW,244,1.5,3.0,95,0.00,SCT,,0.01,120.0,WeatherDisplay:10.37,2013-02-13 17:03:00,
2013-02-13 09:08:00,47.7,46.1,30.32,WSW,245,0.0,1.1,94,0.00,SCT,,0.01,132.0,WeatherDisplay:10.37,2013-02-13 17:08:00,
2013-02-13 09:13:00,47.8,46.2,30.32,WSW,245,0.0,0.0,94,0.00,SCT,,0.01,142.0,WeatherDisplay:10.37,2013-02-13 17:13:00,
2013-02-13 09:18:00,47.9,46.3,30.32,WSW,244,0.0,0.0,94,0.00,SCT,,0.01,178.0,WeatherDisplay:10.37,2013-02-13 17:18:00,
2013-02-13 09:23:00,48.0,46.4,30.32,WSW,245,0.0,1.1,94,0.00,FEW,,0.01,199.0,WeatherDisplay:10.37,2013-02-13 17:23:00,
2013-02-13 09:28:00,48.3,46.7,30.32,WSW,244,0.0,1.1,94,0.00,CLR,,0.01,227.0,WeatherDisplay:10.37,2013-02-13 17:28:00,
2013-02-13 09:33:00,48.7,47.3,30.32,WSW,245,0.0,0.0,95,0.00,CLR,,0.01,257.0,WeatherDisplay:10.37,2013-02-13 17:33:00,
2013-02-13 09:38:00,49.2,47.5,30.32,WSW,245,1.5,3.0,94,0.00,CLR,,0.01,373.0,WeatherDisplay:10.37,2013-02-13 17:38:00,
2013-02-13 09:43:00,49.4,47.7,30.33,WSW,244,0.3,1.0,94,0.00,CLR,,0.01,519.0,WeatherDisplay:10.37,2013-02-13 17:43:00,
2013-02-13 09:48:00,49.7,48.0,30.32,WSW,245,1.2,2.3,94,0.00,CLR,,0.01,371.0,WeatherDisplay:10.37,2013-02-13 17:48:00,
2013-02-13 09:53:00,50.2,48.3,30.32,WSW,245,1.3,3.5,93,0.00,CLR,,0.01,487.0,WeatherDisplay:10.37,2013-02-13 17:53:00,
2013-02-13 09:58:00,50.9,48.7,30.33,WSW,245,0.0,1.1,92,0.00,CLR,,0.01,239.0,WeatherDisplay:10.37,2013-02-13 17:58:00,
2013-02-13 10:03:00,51.0,48.5,30.33,WSW,244,0.1,1.0,91,0.00,CLR,,0.01,262.0,WeatherDisplay:10.37,2013-02-13 18:03:00,
2013-02-13 10:08:00,51.3,48.2,30.33,WSW,245,0.0,1.1,89,0.00,FEW,,0.01,374.0,WeatherDisplay:10.37,2013-02-13 18:08:00,
2013-02-13 10:13:00,51.7,48.3,30.33,WSW,237,2.0,3.5,88,0.00,CLR,,0.01,541.0,WeatherDisplay:10.37,2013-02-13 18:13:00,
2013-02-13 10:18:00,52.2,48.1,30.33,SW,235,0.8,3.5,86,0.00,CLR,,0.01,526.0,WeatherDisplay:10.37,2013-02-13 18:18:00,
2013-02-13 10:24:00,52.8,48.4,30.33,South,184,2.7,3.5,85,0.00,CLR,,0.01,512.0,WeatherDisplay:10.37,2013-02-13 18:24:00,
2013-02-13 10:29:00,53.2,48.2,30.33,South,184,0.2,2.3,83,0.00,CLR,,0.01,519.0,WeatherDisplay:10.37,2013-02-13 18:29:00,
2013-02-13 10:34:00,53.5,48.1,30.33,South,183,0.3,1.1,82,0.00,CLR,,0.01,527.0,WeatherDisplay:10.37,2013-02-13 18:34:00,
2013-02-13 10:39:00,53.6,47.9,30.33,South,183,2.0,2.3,81,0.00,CLR,,0.01,531.0,WeatherDisplay:10.37,2013-02-13 18:39:00,
2013-02-13 10:44:00,53.3,47.6,30.33,South,183,0.0,1.1,81,0.00,CLR,,0.01,531.0,WeatherDisplay:10.37,2013-02-13 18:44:00,
2013-02-13 10:49:00,53.7,48.3,30.33,South,183,1.6,3.5,82,0.00,CLR,,0.01,538.0,WeatherDisplay:10.37,2013-02-13 18:49:00,
2013-02-13 10:54:00,54.3,48.3,30.33,South,183,1.0,3.5,80,0.00,CLR,,0.01,545.0,WeatherDisplay:10.37,2013-02-13 18:54:00,
2013-02-13 10:59:00,54.9,48.2,30.33,South,183,1.2,2.3,78,0.00,CLR,,0.01,555.0,WeatherDisplay:10.37,2013-02-13 18:59:00,
2013-02-13 11:04:00,55.3,48.2,30.33,South,183,0.2,1.1,77,0.00,CLR,,0.01,561.0,WeatherDisplay:10.37,2013-02-13 19:04:00,
2013-02-13 11:09:00,55.6,48.5,30.32,South,183,1.1,2.3,77,0.00,CLR,,0.01,564.0,WeatherDisplay:10.37,2013-02-13 19:09:00,
2013-02-13 11:14:00,56.2,48.7,30.32,South,183,0.7,3.5,76,0.00,CLR,,0.01,570.0,WeatherDisplay:10.37,2013-02-13 19:14:00,
2013-02-13 11:19:00,56.6,48.4,30.32,South,183,0.9,2.3,74,0.00,CLR,,0.01,577.0,WeatherDisplay:10.37,2013-02-13 19:19:00,
2013-02-13 11:24:00,56.6,47.7,30.32,South,183,0.5,2.3,72,0.00,CLR,,0.01,578.0,WeatherDisplay:10.37,2013-02-13 19:24:00,
2013-02-13 11:29:00,56.2,47.7,30.31,South,183,0.3,1.1,73,0.00,CLR,,0.01,584.0,WeatherDisplay:10.37,2013-02-13 19:29:00,
2013-02-13 11:34:00,56.0,47.8,30.31,South,183,1.0,3.0,74,0.00,CLR,,0.01,585.0,WeatherDisplay:10.37,2013-02-13 19:34:00,
2013-02-13 11:39:00,56.5,48.7,30.31,South,183,1.2,3.5,75,0.00,CLR,,0.01,591.0,WeatherDisplay:10.37,2013-02-13 19:39:00,
2013-02-13 11:44:00,57.5,48.9,30.30,South,182,2.4,3.5,73,0.00,CLR,,0.01,598.0,WeatherDisplay:10.37,2013-02-13 19:44:00,
2013-02-13 11:49:00,58.2,49.2,30.30,South,182,2.0,3.5,72,0.00,CLR,,0.01,594.0,WeatherDisplay:10.37,2013-02-13 19:49:00,
2013-02-13 11:54:00,58.6,48.8,30.30,South,182,1.1,2.3,70,0.00,CLR,,0.01,596.0,WeatherDisplay:10.37,2013-02-13 19:54:00,
2013-02-13 11:59:00,59.0,48.8,30.30,South,182,0.9,2.3,69,0.00,CLR,,0.01,596.0,WeatherDisplay:10.37,2013-02-13 19:59:00,
2013-02-13 12:04:00,59.4,49.2,30.29,South,182,1.7,4.6,69,0.00,CLR,,0.01,603.0,WeatherDisplay:10.37,2013-02-13 20:04:00,
2013-02-13 12:09:00,59.7,48.7,30.29,South,181,0.8,3.5,67,0.00,CLR,,0.01,599.0,WeatherDisplay:10.37,2013-02-13 20:09:00,
2013-02-13 12:14:00,59.9,49.3,30.29,South,182,0.0,0.0,68,0.00,CLR,,0.01,599.0,WeatherDisplay:10.37,2013-02-13 20:14:00,
2013-02-13 12:19:00,59.9,48.9,30.28,South,182,0.1,1.0,67,0.00,CLR,,0.01,598.0,WeatherDisplay:10.37,2013-02-13 20:19:00,
2013-02-13 12:24:00,60.0,49.0,30.28,South,181,0.9,2.3,67,0.00,CLR,,0.01,599.0,WeatherDisplay:10.37,2013-02-13 20:24:00,
2013-02-13 12:29:00,60.2,49.2,30.28,South,182,0.5,3.5,67,0.00,CLR,,0.01,596.0,WeatherDisplay:10.37,2013-02-13 20:29:00,
2013-02-13 12:34:00,60.4,49.0,30.28,South,181,0.2,2.0,66,0.00,CLR,,0.01,592.0,WeatherDisplay:10.37,2013-02-13 20:34:00,
2013-02-13 12:39:00,60.4,48.6,30.28,South,182,1.9,4.0,65,0.00,CLR,,0.01,587.0,WeatherDisplay:10.37,2013-02-13 20:39:00,
2013-02-13 12:44:00,60.2,48.8,30.27,South,182,0.0,1.1,66,0.00,CLR,,0.01,585.0,WeatherDisplay:10.37,2013-02-13 20:44:00,
2013-02-13 12:49:00,60.4,49.8,30.27,ESE,122,0.6,3.5,68,0.00,CLR,,0.01,585.0,WeatherDisplay:10.37,2013-02-13 20:49:00,
2013-02-13 12:54:00,60.9,49.9,30.27,SSE,167,2.0,4.0,67,0.00,CLR,,0.01,584.0,WeatherDisplay:10.37,2013-02-13 20:54:00,
2013-02-13 12:59:00,61.5,50.0,30.27,SSE,168,1.9,3.5,66,0.00,CLR,,0.01,582.0,WeatherDisplay:10.37,2013-02-13 20:59:00,
2013-02-13 13:04:00,62.1,49.8,30.27,SSE,168,0.7,3.5,64,0.00,CLR,,0.01,578.0,WeatherDisplay:10.37,2013-02-13 21:04:00,
2013-02-13 13:09:00,62.4,49.2,30.26,NNW,327,2.5,4.6,62,0.00,CLR,,0.01,566.0,WeatherDisplay:10.37,2013-02-13 21:09:00,
2013-02-13 13:14:00,61.8,49.1,30.26,NNW,337,0.0,3.5,63,0.00,CLR,,0.01,561.0,WeatherDisplay:10.37,2013-02-13 21:14:00,
2013-02-13 13:19:00,61.2,48.9,30.26,East,84,0.8,3.5,64,0.00,CLR,,0.01,559.0,WeatherDisplay:10.37,2013-02-13 21:19:00,
2013-02-13 13:24:00,60.8,48.5,30.26,West,268,3.9,5.8,64,0.00,CLR,,0.01,554.0,WeatherDisplay:10.37,2013-02-13 21:24:00,
2013-02-13 13:29:00,60.4,48.6,30.26,West,266,4.8,7.0,65,0.00,CLR,,0.01,547.0,WeatherDisplay:10.37,2013-02-13 21:29:00,
2013-02-13 13:34:00,60.2,48.4,30.25,WNW,285,2.0,6.9,65,0.00,CLR,,0.01,541.0,WeatherDisplay:10.37,2013-02-13 21:34:00,
2013-02-13 13:39:00,60.3,48.1,30.25,North,355,1.7,3.0,64,0.00,CLR,,0.01,541.0,WeatherDisplay:10.37,2013-02-13 21:39:00,
2013-02-13 13:44:00,60.1,47.9,30.25,North,354,0.5,3.5,64,0.00,CLR,,0.01,536.0,WeatherDisplay:10.37,2013-02-13 21:44:00,
2013-02-13 13:49:00,60.2,47.6,30.25,North,356,0.3,1.1,63,0.00,CLR,,0.01,529.0,WeatherDisplay:10.37,2013-02-13 21:49:00,
2013-02-13 13:54:00,60.6,47.5,30.24,North,356,2.0,4.0,62,0.00,CLR,,0.01,517.0,WeatherDisplay:10.37,2013-02-13 21:54:00,
2013-02-13 13:59:00,60.9,46.9,30.24,North,1,0.0,0.0,60,0.00,CLR,,0.01,515.0,WeatherDisplay:10.37,2013-02-13 21:59:00,
2013-02-13 14:04:00,61.0,46.1,30.24,West,275,0.0,1.0,58,0.00,CLR,,0.01,504.0,WeatherDisplay:10.37,2013-02-13 22:04:00,
2013-02-13 14:09:00,60.9,46.0,30.24,WNW,300,0.5,3.5,58,0.00,CLR,,0.01,490.0,WeatherDisplay:10.37,2013-02-13 22:09:00,
2013-02-13 14:14:00,60.9,45.1,30.24,West,281,0.6,4.0,56,0.00,CLR,,0.01,489.0,WeatherDisplay:10.37,2013-02-13 22:14:00,
2013-02-13 14:19:00,61.1,44.8,30.24,West,260,0.4,4.6,55,0.00,CLR,,0.01,478.0,WeatherDisplay:10.37,2013-02-13 22:19:00,
2013-02-13 14:24:00,61.8,46.9,30.23,WSW,250,0.0,2.3,58,0.00,CLR,,0.01,475.0,WeatherDisplay:10.37,2013-02-13 22:24:00,
2013-02-13 14:29:00,62.2,46.3,30.23,West,264,1.8,3.5,56,0.00,CLR,,0.01,464.0,WeatherDisplay:10.37,2013-02-13 22:29:00,
2013-02-13 14:34:00,62.3,47.3,30.23,WSW,247,4.9,9.0,58,0.00,FEW,,0.01,452.0,WeatherDisplay:10.37,2013-02-13 22:34:00,
2013-02-13 14:39:00,62.5,47.5,30.23,South,184,4.3,5.0,58,0.00,FEW,,0.01,439.0,WeatherDisplay:10.37,2013-02-13 22:39:00,
2013-02-13 14:44:00,62.2,47.7,30.23,SW,230,5.2,10.4,59,0.00,FEW,,0.01,431.0,WeatherDisplay:10.37,2013-02-13 22:44:00,
2013-02-13 14:49:00,62.2,45.8,30.23,WSW,250,4.4,5.8,55,0.00,FEW,,0.01,422.0,WeatherDisplay:10.37,2013-02-13 22:49:00,
2013-02-13 14:54:00,62.6,47.6,30.23,SW,226,4.3,10.4,58,0.00,FEW,,0.01,410.0,WeatherDisplay:10.37,2013-02-13 22:54:00,
2013-02-13 14:59:00,62.3,46.9,30.23,SSW,196,9.0,12.7,57,0.00,FEW,,0.01,397.0,WeatherDisplay:10.37,2013-02-13 22:59:00,
2013-02-13 15:04:00,61.3,46.8,30.23,SSW,194,7.8,11.5,59,0.00,FEW,,0.01,388.0,WeatherDisplay:10.37,2013-02-13 23:04:00,
2013-02-13 15:09:00,60.7,46.7,30.23,WSW,251,7.4,10.0,60,0.00,FEW,,0.01,373.0,WeatherDisplay:10.37,2013-02-13 23:09:00,
2013-02-13 15:14:00,60.4,44.2,30.23,WSW,250,6.6,11.5,55,0.00,FEW,,0.01,357.0,WeatherDisplay:10.37,2013-02-13 23:14:00,
2013-02-13 15:19:00,60.1,46.2,30.23,SSW,195,5.0,10.4,60,0.00,SCT,,0.01,345.0,WeatherDisplay:10.37,2013-02-13 23:19:00,
2013-02-13 15:24:00,60.2,44.9,30.23,SW,235,6.0,10.0,57,0.00,SCT,,0.01,332.0,WeatherDisplay:10.37,2013-02-13 23:24:00,
2013-02-13 15:29:00,60.3,44.1,30.23,West,269,2.2,9.2,55,0.00,SCT,,0.01,322.0,WeatherDisplay:10.37,2013-02-13 23:29:00,
2013-02-13 15:34:00,59.8,43.6,30.23,WNW,290,3.7,6.9,55,0.00,SCT,,0.01,311.0,WeatherDisplay:10.37,2013-02-13 23:34:00,
2013-02-13 15:39:00,59.7,43.0,30.22,WSW,252,5.0,12.0,54,0.00,SCT,,0.01,301.0,WeatherDisplay:10.37,2013-02-13 23:39:00,
2013-02-13 15:44:00,59.8,43.1,30.22,WSW,244,6.4,6.9,54,0.00,SCT,,0.01,287.0,WeatherDisplay:10.37,2013-02-13 23:44:00,
2013-02-13 15:49:00,60.0,43.3,30.22,WSW,243,6.0,10.0,54,0.00,SCT,,0.01,272.0,WeatherDisplay:10.37,2013-02-13 23:49:00,
2013-02-13 15:54:00,60.1,43.4,30.22,SW,223,6.7,10.4,54,0.00,SCT,,0.01,260.0,WeatherDisplay:10.37,2013-02-13 23:54:00,
2013-02-13 16:00:00,60.1,43.4,30.22,WNW,287,5.2,6.9,54,0.00,SCT,,0.01,248.0,WeatherDisplay:10.37,2013-02-14 00:00:00,
2013-02-13 16:05:00,60.1,43.4,30.22,SW,219,4.8,9.2,54,0.00,SCT,,0.01,234.0,WeatherDisplay:10.37,2013-02-14 00:05:00,
2013-02-13 16:10:00,60.0,44.3,30.22,SW,233,4.3,7.0,56,0.00,SCT,,0.01,218.0,WeatherDisplay:10.37,2013-02-14 00:10:00,
2013-02-13 16:15:00,60.0,45.2,30.22,SW,232,7.2,9.2,58,0.00,SCT,,0.01,204.0,WeatherDisplay:10.37,2013-02-14 00:15:00,
2013-02-13 16:20:00,59.5,45.2,30.22,SW,222,5.9,8.1,59,0.00,SCT,,0.01,192.0,WeatherDisplay:10.37,2013-02-14 00:20:00,
2013-02-13 16:25:00,58.8,45.4,30.22,SSW,197,6.1,11.5,61,0.00,SCT,,0.01,176.0,WeatherDisplay:10.37,2013-02-14 00:25:00,
2013-02-13 16:30:00,58.2,46.1,30.22,SW,216,5.0,9.0,64,0.00,SCT,,0.01,163.0,WeatherDisplay:10.37,2013-02-14 00:30:00,
2013-02-13 16:35:00,57.6,45.5,30.21,WSW,239,4.1,6.9,64,0.00,SCT,,0.01,153.0,WeatherDisplay:10.37,2013-02-14 00:35:00,
2013-02-13 16:40:00,57.0,45.3,30.21,SW,225,3.8,5.8,65,0.00,SCT,,0.01,141.0,WeatherDisplay:10.37,2013-02-14 00:40:00,
2013-02-13 16:45:00,56.7,44.7,30.21,SW,229,0.6,3.5,64,0.00,SCT,,0.01,130.0,WeatherDisplay:10.37,2013-02-14 00:45:00,
2013-02-13 16:50:00,56.6,44.6,30.21,WNW,284,1.3,3.5,64,0.00,BKN,,0.01,113.0,WeatherDisplay:10.37,2013-02-14 00:50:00,
2013-02-13 16:55:00,56.3,45.1,30.21,WSW,252,3.0,12.0,66,0.00,BKN,,0.01,95.0,WeatherDisplay:10.37,2013-02-14 00:55:00,
2013-02-13 17:00:00,55.3,45.3,30.21,WSW,237,4.5,9.2,69,0.00,BKN,,0.01,79.0,WeatherDisplay:10.37,2013-02-14 01:00:00,
2013-02-13 17:05:00,54.5,45.7,30.21,SW,227,8.2,10.4,72,0.00,BKN,,0.01,65.0,WeatherDisplay:10.37,2013-02-14 01:05:00,
2013-02-13 17:10:00,53.8,45.7,30.21,WSW,248,8.3,11.5,74,0.00,BKN,,0.01,53.0,WeatherDisplay:10.37,2013-02-14 01:10:00,
2013-02-13 17:15:00,53.1,45.7,30.21,SW,220,4.4,5.8,76,0.00,BKN,,0.01,42.0,WeatherDisplay:10.37,2013-02-14 01:15:00,
2013-02-13 17:20:00,52.9,45.9,30.21,WSW,237,9.4,13.8,77,0.00,BKN,,0.01,19.0,WeatherDisplay:10.37,2013-02-14 01:20:00,
2013-02-13 17:25:00,52.4,45.7,30.21,SW,221,8.7,11.5,78,0.00,OVC,,0.01,16.0,WeatherDisplay:10.37,2013-02-14 01:25:00,
2013-02-13 17:30:00,52.0,46.0,30.20,West,263,6.3,10.4,80,0.00,OVC,,0.01,14.0,WeatherDisplay:10.37,2013-02-14 01:30:00,
2013-02-13 17:35:00,51.7,45.7,30.20,SSW,208,4.6,9.0,80,0.00,OVC,,0.01,11.0,WeatherDisplay:10.37,2013-02-14 01:35:00,
2013-02-13 17:40:00,51.5,46.2,30.20,SW,229,7.4,10.4,82,0.00,OVC,,0.01,9.0,WeatherDisplay:10.37,2013-02-14 01:40:00,
2013-02-13 17:45:00,51.3,46.3,30.20,SSW,212,5.0,10.0,83,0.00,OVC,,0.01,5.0,WeatherDisplay:10.37,2013-02-14 01:45:00,
2013-02-13 17:50:00,51.2,46.2,30.20,WSW,237,7.3,11.5,83,0.00,OVC,,0.01,0.0,WeatherDisplay:10.37,2013-02-14 01:50:00,
2013-02-13 17:55:00,51.0,46.3,30.20,WSW,254,5.9,9.2,84,0.00,OVC,,0.01,0.0,WeatherDisplay:10.37,2013-02-14 01:55:00,
2013-02-13 18:00:00,50.9,46.6,30.20,West,262,4.8,6.9,85,0.00,OVC,,0.01,0.0,WeatherDisplay:10.37,2013-02-14 02:00:00,
2013-02-13 18:05:00,50.8,46.8,30.20,WNW,288,0.4,3.5,86,0.00,OVC,,0.01,0.0,WeatherDisplay:10.37,2013-02-14 02:05:00,
2013-02-13 18:10:00,50.7,46.7,30.20,WSW,254,2.3,4.6,86,0.00,OVC,,0.01,0.0,WeatherDisplay:10.37,2013-02-14 02:10:00,
2013-02-13 18:15:00,50.6,46.6,30.20,WSW,256,1.7,3.5,86,0.00,OVC,,0.01,0.0,WeatherDisplay:10.37,2013-02-14 02:15:00,
2013-02-13 18:20:00,50.5,46.5,30.20,West,281,4.1,6.9,86,0.00,OVC,,0.01,0.0,WeatherDisplay:10.37,2013-02-14 02:20:00,
2013-02-13 18:25:00,50.6,46.6,30.20,WSW,246,4.4,5.8,86,0.00,OVC,,0.01,0.0,WeatherDisplay:10.37,2013-02-14 02:25:00,
2013-02-13 18:30:00,50.5,46.5,30.20,WSW,246,2.6,4.6,86,0.00,OVC,,0.01,0.0,WeatherDisplay:10.37,2013-02-14 02:30:00,
2013-02-13 18:35:00,50.6,46.6,30.20,WSW,240,4.5,6.9,86,0.00,OVC,,0.01,0.0,WeatherDisplay:10.37,2013-02-14 02:35:00,
2013-02-13 18:40:00,50.6,46.6,30.20,SW,230,3.5,7.0,86,0.00,OVC,,0.01,0.0,WeatherDisplay:10.37,2013-02-14 02:40:00,
2013-02-13 18:45:00,50.6,46.6,30.20,SW,235,3.8,9.2,86,0.00,OVC,,0.01,0.0,WeatherDisplay:10.37,2013-02-14 02:45:00,
2013-02-13 18:50:00,50.6,46.6,30.20,West,262,4.8,10.4,86,0.00,OVC,,0.01,0.0,WeatherDisplay:10.37,2013-02-14 02:50:00,
2013-02-13 18:55:00,50.5,46.8,30.21,West,277,4.3,9.2,87,0.00,OVC,,0.01,0.0,WeatherDisplay:10.37,2013-02-14 02:55:00,
2013-02-13 19:00:00,50.4,46.7,30.21,WSW,254,6.0,11.5,87,0.00,OVC,,0.01,0.0,WeatherDisplay:10.37,2013-02-14 03:00:00,
2013-02-13 19:05:00,50.3,46.6,30.20,West,260,8.8,12.0,87,0.00,OVC,,0.01,0.0,WeatherDisplay:10.37,2013-02-14 03:05:00,
2013-02-13 19:10:00,50.1,46.7,30.20,WSW,248,6.7,8.1,88,0.00,OVC,,0.01,0.0,WeatherDisplay:10.37,2013-02-14 03:10:00,
2013-02-13 19:15:00,50.1,46.7,30.20,WSW,237,7.6,11.5,88,0.00,OVC,,0.01,0.0,WeatherDisplay:10.37,2013-02-14 03:15:00,
2013-02-13 19:20:00,50.1,46.7,30.21,SW,236,3.3,11.0,88,0.00,OVC,,0.01,0.0,WeatherDisplay:10.37,2013-02-14 03:20:00,
2013-02-13 19:25:00,50.1,46.7,30.21,West,264,6.0,11.5,88,0.00,OVC,,0.01,0.0,WeatherDisplay:10.37,2013-02-14 03:25:00,
2013-02-13 19:30:00,50.0,46.6,30.21,WSW,251,4.3,6.9,88,0.00,OVC,,0.01,0.0,WeatherDisplay:10.37,2013-02-14 03:30:00,
2013-02-13 19:35:00,50.0,46.9,30.21,SW,229,8.2,10.4,89,0.00,OVC,,0.01,0.0,WeatherDisplay:10.37,2013-02-14 03:35:00,
2013-02-13 19:40:00,50.0,46.9,30.21,SW,233,5.6,10.4,89,0.00,OVC,,0.01,0.0,WeatherDisplay:10.37,2013-02-14 03:40:00,
2013-02-13 19:45:00,50.0,46.9,30.21,WSW,256,7.2,11.5,89,0.00,OVC,,0.01,0.0,WeatherDisplay:10.37,2013-02-14 03:45:00,
2013-02-13 19:50:00,50.0,47.2,30.21,WSW,242,9.5,12.7,90,0.00,OVC,,0.01,0.0,WeatherDisplay:10.37,2013-02-14 03:50:00,
2013-02-13 19:55:00,49.9,47.1,30.21,West,270,5.1,6.9,90,0.00,OVC,,0.01,0.0,WeatherDisplay:10.37,2013-02-14 03:55:00,
2013-02-13 20:00:00,49.9,47.1,30.21,WSW,243,4.0,6.0,90,0.00,OVC,,0.01,0.0,WeatherDisplay:10.37,2013-02-14 04:00:00,
2013-02-13 20:05:00,50.0,47.2,30.21,West,268,6.0,15.0,90,0.00,OVC,,0.01,0.0,WeatherDisplay:10.37,2013-02-14 04:05:00,
2013-02-13 20:10:00,50.0,47.2,30.21,WSW,247,4.0,6.0,90,0.00,OVC,,0.01,0.0,WeatherDisplay:10.37,2013-02-14 04:10:00,
2013-02-13 20:15:00,50.1,47.3,30.21,WNW,302,7.7,11.5,90,0.00,OVC,,0.01,0.0,WeatherDisplay:10.37,2013-02-14 04:15:00,
2013-02-13 20:20:00,50.0,47.2,30.21,WSW,252,7.9,13.8,90,0.00,OVC,,0.01,0.0,WeatherDisplay:10.37,2013-02-14 04:20:00,
2013-02-13 20:25:00,50.0,47.2,30.21,West,273,5.1,6.9,90,0.00,OVC,,0.01,0.0,WeatherDisplay:10.37,2013-02-14 04:25:00,
2013-02-13 20:30:00,50.0,47.2,30.21,West,262,2.3,4.6,90,0.00,OVC,,0.01,0.0,WeatherDisplay:10.37,2013-02-14 04:30:00,
2013-02-13 20:35:00,50.0,47.2,30.21,WSW,246,2.7,5.0,90,0.00,OVC,,0.01,0.0,WeatherDisplay:10.37,2013-02-14 04:35:00,
2013-02-13 20:40:00,50.0,47.2,30.21,SW,233,5.0,9.2,90,0.00,OVC,,0.01,0.0,WeatherDisplay:10.37,2013-02-14 04:40:00,
2013-02-13 20:45:00,50.0,47.2,30.21,SW,235,6.3,8.1,90,0.00,OVC,,0.01,0.0,WeatherDisplay:10.37,2013-02-14 04:45:00,
2013-02-13 20:50:00,49.9,47.1,30.21,West,263,3.8,10.4,90,0.00,OVC,,0.01,0.0,WeatherDisplay:10.37,2013-02-14 04:50:00,
2013-02-13 20:55:00,49.9,47.1,30.21,SW,225,3.4,5.8,90,0.00,OVC,,0.01,0.0,WeatherDisplay:10.37,2013-02-14 04:55:00,
2013-02-13 21:00:00,49.9,47.1,30.21,SW,225,1.1,3.5,90,0.00,OVC,,0.01,0.0,WeatherDisplay:10.37,2013-02-14 05:00:00,
2013-02-13 21:05:00,49.8,46.7,30.21,WSW,237,1.9,3.5,89,0.00,OVC,,0.01,0.0,WeatherDisplay:10.37,2013-02-14 05:05:00,
2013-02-13 21:10:00,49.8,47.0,30.21,WSW,237,0.0,0.0,90,0.00,OVC,,0.01,0.0,WeatherDisplay:10.37,2013-02-14 05:10:00,
2013-02-13 21:15:00,49.8,47.0,30.21,WSW,237,0.0,0.0,90,0.00,OVC,,0.01,0.0,WeatherDisplay:10.37,2013-02-14 05:15:00,
2013-02-13 21:21:00,49.7,46.6,30.21,WSW,237,0.0,0.0,89,0.00,OVC,,0.01,0.0,WeatherDisplay:10.37,2013-02-14 05:21:00,
2013-02-13 21:26:00,49.6,46.8,30.21,WSW,237,4.3,4.6,90,0.00,OVC,,0.01,0.0,WeatherDisplay:10.37,2013-02-14 05:26:00,
2013-02-13 21:31:00,49.6,46.8,30.21,SW,225,4.6,6.9,90,0.00,OVC,,0.01,0.0,WeatherDisplay:10.37,2013-02-14 05:31:00,
2013-02-13 21:36:00,49.6,46.8,30.21,WSW,246,5.3,6.9,90,0.00,OVC,,0.01,0.0,WeatherDisplay:10.37,2013-02-14 05:36:00,
2013-02-13 21:41:00,49.5,46.7,30.22,WSW,258,2.4,3.5,90,0.00,OVC,,0.01,0.0,WeatherDisplay:10.37,2013-02-14 05:41:00,
2013-02-13 21:46:00,49.5,46.7,30.22,WNW,294,3.1,4.6,90,0.00,OVC,,0.01,0.0,WeatherDisplay:10.37,2013-02-14 05:46:00,
2013-02-13 21:51:00,49.6,46.8,30.21,WSW,241,4.4,5.8,90,0.00,OVC,,0.01,0.0,WeatherDisplay:10.37,2013-02-14 05:51:00,
2013-02-13 21:56:00,49.5,46.7,30.21,SW,225,3.7,4.6,90,0.00,OVC,,0.01,0.0,WeatherDisplay:10.37,2013-02-14 05:56:00,
2013-02-13 22:01:00,49.4,46.6,30.22,SW,227,1.9,3.5,90,0.00,OVC,,0.01,0.0,WeatherDisplay:10.37,2013-02-14 06:01:00,
2013-02-13 22:06:00,49.3,46.5,30.22,SW,233,3.0,6.0,90,0.00,OVC,,0.01,0.0,WeatherDisplay:10.37,2013-02-14 06:06:00,
2013-02-13 22:11:00,49.2,46.7,30.22,WSW,248,4.1,9.2,91,0.00,OVC,,0.01,0.0,WeatherDisplay:10.37,2013-02-14 06:11:00,
2013-02-13 22:16:00,49.2,46.7,30.22,WSW,241,5.3,8.1,91,0.00,OVC,,0.01,0.0,WeatherDisplay:10.37,2013-02-14 06:16:00,
2013-02-13 22:21:00,49.0,46.5,30.22,WSW,257,3.5,5.8,91,0.00,OVC,,0.01,0.0,WeatherDisplay:10.37,2013-02-14 06:21:00,
2013-02-13 22:26:00,48.9,46.4,30.22,WSW,254,1.9,3.5,91,0.00,OVC,,0.01,0.0,WeatherDisplay:10.37,2013-02-14 06:26:00,
2013-02-13 22:31:00,48.8,46.3,30.22,WSW,254,0.8,2.3,91,0.00,OVC,,0.01,0.0,WeatherDisplay:10.37,2013-02-14 06:31:00,
2013-02-13 22:36:00,48.9,46.4,30.21,SW,232,3.5,5.0,91,0.00,OVC,,0.01,0.0,WeatherDisplay:10.37,2013-02-14 06:36:00,
2013-02-13 22:41:00,48.8,46.3,30.21,SW,222,5.9,10.4,91,0.00,OVC,,0.01,0.0,WeatherDisplay:10.37,2013-02-14 06:41:00,
2013-02-13 22:46:00,48.6,46.1,30.21,SW,222,2.7,4.0,91,0.00,OVC,,0.01,0.0,WeatherDisplay:10.37,2013-02-14 06:46:00,
2013-02-13 22:51:00,48.6,46.1,30.21,WSW,244,5.1,8.0,91,0.00,OVC,,0.01,0.0,WeatherDisplay:10.37,2013-02-14 06:51:00,
2013-02-13 22:56:00,48.5,46.0,30.22,West,262,2.8,4.6,91,0.00,OVC,,0.01,0.0,WeatherDisplay:10.37,2013-02-14 06:56:00,
2013-02-13 23:01:00,48.6,46.1,30.22,SW,236,4.8,6.9,91,0.00,OVC,,0.01,0.0,WeatherDisplay:10.37,2013-02-14 07:01:00,
2013-02-13 23:06:00,48.6,46.1,30.22,WSW,237,3.8,4.6,91,0.00,OVC,,0.01,0.0,WeatherDisplay:10.37,2013-02-14 07:06:00,
2013-02-13 23:11:00,48.6,46.1,30.21,WSW,237,3.3,4.0,91,0.00,OVC,,0.01,0.0,WeatherDisplay:10.37,2013-02-14 07:11:00,
2013-02-13 23:16:00,48.5,46.0,30.22,WSW,238,2.6,3.5,91,0.00,OVC,,0.01,0.0,WeatherDisplay:10.37,2013-02-14 07:16:00,
2013-02-13 23:21:00,48.5,46.0,30.22,WSW,248,3.0,5.0,91,0.00,OVC,,0.01,0.0,WeatherDisplay:10.37,2013-02-14 07:21:00,
2013-02-13 23:26:00,48.4,45.9,30.21,WSW,246,1.1,3.5,91,0.00,OVC,,0.01,0.0,WeatherDisplay:10.37,2013-02-14 07:26:00,
2013-02-13 23:31:00,48.3,46.1,30.21,WSW,246,0.5,3.5,92,0.00,OVC,,0.01,0.0,WeatherDisplay:10.37,2013-02-14 07:31:00,
2013-02-13 23:36:00,48.2,46.0,30.21,WSW,246,0.6,3.0,92,0.00,OVC,,0.01,0.0,WeatherDisplay:10.37,2013-02-14 07:36:00,
2013-02-13 23:41:00,48.1,45.9,30.21,WSW,246,2.6,5.0,92,0.00,OVC,,0.01,0.0,WeatherDisplay:10.37,2013-02-14 07:41:00,
2013-02-13 23:46:00,48.0,45.8,30.21,WSW,247,0.4,3.5,92,0.00,OVC,,0.01,0.0,WeatherDisplay:10.37,2013-02-14 07:46:00,
2013-02-13 23:51:00,48.0,45.8,30.21,WSW,247,1.5,4.6,92,0.00,OVC,,0.01,0.0,WeatherDisplay:10.37,2013-02-14 07:51:00,
2013-02-13 23:56:00,48.0,45.8,30.21,West,262,2.6,4.6,92,0.00,OVC,,0.01,0.0,WeatherDisplay:10.37,2013-02-14 07:56:00,